sensor_id;sensor_type;location;lat;lon;timestamp;P1;durP1;ratioP1;P2;durP2;ratioP2
55776;SDS011;54079;44.540;18.784;2023-08-06T00:00:19;5.03;;;4.07;;
55776;SDS011;54079;44.540;18.784;2023-08-06T00:02:45;4.57;;;4.15;;
55776;SDS011;54079;44.540;18.784;2023-08-06T00:05:11;4.60;;;4.20;;
55776;SDS011;54079;44.540;18.784;2023-08-06T00:07:37;4.47;;;4.18;;
55776;SDS011;54079;44.540;18.784;2023-08-06T00:10:03;4.28;;;3.95;;
55776;SDS011;54079;44.540;18.784;2023-08-06T00:12:29;5.35;;;4.85;;
55776;SDS011;54079;44.540;18.784;2023-08-06T00:14:55;5.25;;;4.85;;
55776;SDS011;54079;44.540;18.784;2023-08-06T00:17:21;4.35;;;3.92;;
55776;SDS011;54079;44.540;18.784;2023-08-06T00:19:47;3.85;;;3.53;;
55776;SDS011;54079;44.540;18.784;2023-08-06T00:22:13;4.25;;;3.85;;
55776;SDS011;54079;44.540;18.784;2023-08-06T00:24:39;3.95;;;3.63;;
55776;SDS011;54079;44.540;18.784;2023-08-06T00:27:05;3.70;;;3.40;;
55776;SDS011;54079;44.540;18.784;2023-08-06T00:29:31;3.40;;;3.20;;
55776;SDS011;54079;44.540;18.784;2023-08-06T00:31:57;3.38;;;3.17;;
55776;SDS011;54079;44.540;18.784;2023-08-06T00:34:22;3.90;;;3.60;;
55776;SDS011;54079;44.540;18.784;2023-08-06T00:36:48;3.60;;;3.30;;
55776;SDS011;54079;44.540;18.784;2023-08-06T00:39:14;3.92;;;3.60;;
55776;SDS011;54079;44.540;18.784;2023-08-06T00:41:40;5.38;;;4.88;;
55776;SDS011;54079;44.540;18.784;2023-08-06T00:44:06;4.15;;;3.83;;
55776;SDS011;54079;44.540;18.784;2023-08-06T00:46:32;4.30;;;3.63;;
55776;SDS011;54079;44.540;18.784;2023-08-06T00:48:59;4.07;;;3.78;;
55776;SDS011;54079;44.540;18.784;2023-08-06T00:51:25;4.13;;;3.55;;
55776;SDS011;54079;44.540;18.784;2023-08-06T00:53:52;4.75;;;4.35;;
55776;SDS011;54079;44.540;18.784;2023-08-06T00:56:18;5.50;;;5.03;;
55776;SDS011;54079;44.540;18.784;2023-08-06T00:58:44;4.95;;;4.55;;
55776;SDS011;54079;44.540;18.784;2023-08-06T01:01:11;5.32;;;4.90;;
55776;SDS011;54079;44.540;18.784;2023-08-06T01:03:37;5.50;;;5.00;;
55776;SDS011;54079;44.540;18.784;2023-08-06T01:06:03;4.10;;;3.80;;
55776;SDS011;54079;44.540;18.784;2023-08-06T01:11:12;3.72;;;3.42;;
55776;SDS011;54079;44.540;18.784;2023-08-06T01:14:00;4.10;;;3.72;;
55776;SDS011;54079;44.540;18.784;2023-08-06T01:16:33;3.42;;;3.22;;
55776;SDS011;54079;44.540;18.784;2023-08-06T01:18:59;2.97;;;2.78;;
55776;SDS011;54079;44.540;18.784;2023-08-06T01:21:25;4.10;;;3.10;;
55776;SDS011;54079;44.540;18.784;2023-08-06T01:23:51;3.58;;;3.28;;
55776;SDS011;54079;44.540;18.784;2023-08-06T01:31:32;4.47;;;3.83;;
55776;SDS011;54079;44.540;18.784;2023-08-06T01:34:01;3.47;;;3.17;;
55776;SDS011;54079;44.540;18.784;2023-08-06T01:36:30;4.00;;;3.63;;
55776;SDS011;54079;44.540;18.784;2023-08-06T01:38:59;3.92;;;3.63;;
55776;SDS011;54079;44.540;18.784;2023-08-06T01:41:25;4.05;;;3.75;;
55776;SDS011;54079;44.540;18.784;2023-08-06T01:43:51;4.88;;;4.35;;
55776;SDS011;54079;44.540;18.784;2023-08-06T01:46:17;4.35;;;4.03;;
55776;SDS011;54079;44.540;18.784;2023-08-06T01:48:43;4.25;;;3.95;;
55776;SDS011;54079;44.540;18.784;2023-08-06T01:51:09;4.72;;;4.28;;
55776;SDS011;54079;44.540;18.784;2023-08-06T01:53:35;4.97;;;4.10;;
55776;SDS011;54079;44.540;18.784;2023-08-06T01:56:01;3.78;;;3.47;;
55776;SDS011;54079;44.540;18.784;2023-08-06T01:58:27;4.15;;;3.85;;
55776;SDS011;54079;44.540;18.784;2023-08-06T02:00:53;5.43;;;4.85;;
55776;SDS011;54079;44.540;18.784;2023-08-06T02:03:18;5.05;;;4.65;;
55776;SDS011;54079;44.540;18.784;2023-08-06T02:05:44;5.65;;;4.05;;
55776;SDS011;54079;44.540;18.784;2023-08-06T02:08:10;4.55;;;4.18;;
55776;SDS011;54079;44.540;18.784;2023-08-06T02:10:36;4.18;;;3.78;;
55776;SDS011;54079;44.540;18.784;2023-08-06T02:13:02;4.60;;;4.20;;
55776;SDS011;54079;44.540;18.784;2023-08-06T02:15:28;4.50;;;4.10;;
55776;SDS011;54079;44.540;18.784;2023-08-06T02:17:54;4.03;;;3.72;;
55776;SDS011;54079;44.540;18.784;2023-08-06T02:20:20;5.47;;;4.97;;
55776;SDS011;54079;44.540;18.784;2023-08-06T02:22:46;5.22;;;4.80;;
55776;SDS011;54079;44.540;18.784;2023-08-06T02:25:12;4.25;;;3.78;;
55776;SDS011;54079;44.540;18.784;2023-08-06T02:27:38;3.67;;;3.38;;
55776;SDS011;54079;44.540;18.784;2023-08-06T02:30:04;2.92;;;2.72;;
55776;SDS011;54079;44.540;18.784;2023-08-06T02:32:31;2.83;;;2.63;;
55776;SDS011;54079;44.540;18.784;2023-08-06T02:34:57;3.97;;;3.67;;
55776;SDS011;54079;44.540;18.784;2023-08-06T02:37:23;2.90;;;2.70;;
55776;SDS011;54079;44.540;18.784;2023-08-06T02:39:49;3.10;;;2.88;;
55776;SDS011;54079;44.540;18.784;2023-08-06T02:42:15;2.58;;;2.38;;
55776;SDS011;54079;44.540;18.784;2023-08-06T02:44:41;4.43;;;4.03;;
55776;SDS011;54079;44.540;18.784;2023-08-06T02:47:07;6.22;;;5.63;;
55776;SDS011;54079;44.540;18.784;2023-08-06T02:49:33;4.30;;;3.90;;
55776;SDS011;54079;44.540;18.784;2023-08-06T02:51:58;3.50;;;3.10;;
55776;SDS011;54079;44.540;18.784;2023-08-06T02:54:24;2.95;;;2.67;;
55776;SDS011;54079;44.540;18.784;2023-08-06T02:56:50;2.55;;;2.35;;
55776;SDS011;54079;44.540;18.784;2023-08-06T02:59:16;3.05;;;2.67;;
55776;SDS011;54079;44.540;18.784;2023-08-06T03:01:42;2.10;;;2.00;;
55776;SDS011;54079;44.540;18.784;2023-08-06T03:04:08;2.03;;;1.88;;
55776;SDS011;54079;44.540;18.784;2023-08-06T03:06:34;1.90;;;1.77;;
55776;SDS011;54079;44.540;18.784;2023-08-06T03:09:00;2.50;;;2.15;;
55776;SDS011;54079;44.540;18.784;2023-08-06T03:11:26;2.97;;;2.65;;
55776;SDS011;54079;44.540;18.784;2023-08-06T03:13:52;2.75;;;2.20;;
55776;SDS011;54079;44.540;18.784;2023-08-06T03:16:18;2.70;;;2.50;;
55776;SDS011;54079;44.540;18.784;2023-08-06T03:18:43;2.47;;;2.28;;
55776;SDS011;54079;44.540;18.784;2023-08-06T03:21:09;1.98;;;1.75;;
55776;SDS011;54079;44.540;18.784;2023-08-06T03:23:35;4.00;;;2.55;;
55776;SDS011;54079;44.540;18.784;2023-08-06T03:26:02;2.38;;;2.17;;
55776;SDS011;54079;44.540;18.784;2023-08-06T03:28:28;2.97;;;2.67;;
55776;SDS011;54079;44.540;18.784;2023-08-06T03:31:00;1.77;;;1.67;;
55776;SDS011;54079;44.540;18.784;2023-08-06T03:33:27;2.13;;;1.95;;
55776;SDS011;54079;44.540;18.784;2023-08-06T03:35:53;1.73;;;1.63;;
55776;SDS011;54079;44.540;18.784;2023-08-06T03:38:19;1.70;;;1.60;;
55776;SDS011;54079;44.540;18.784;2023-08-06T03:40:46;2.13;;;1.95;;
55776;SDS011;54079;44.540;18.784;2023-08-06T03:43:12;1.75;;;1.65;;
55776;SDS011;54079;44.540;18.784;2023-08-06T03:45:38;1.70;;;1.60;;
55776;SDS011;54079;44.540;18.784;2023-08-06T03:48:05;2.20;;;2.00;;
55776;SDS011;54079;44.540;18.784;2023-08-06T03:50:31;2.10;;;1.80;;
55776;SDS011;54079;44.540;18.784;2023-08-06T03:52:57;2.42;;;2.22;;
55776;SDS011;54079;44.540;18.784;2023-08-06T03:55:23;3.28;;;2.88;;
55776;SDS011;54079;44.540;18.784;2023-08-06T03:57:48;3.25;;;2.95;;
55776;SDS011;54079;44.540;18.784;2023-08-06T04:00:14;1.95;;;1.80;;
55776;SDS011;54079;44.540;18.784;2023-08-06T04:02:40;1.90;;;1.80;;
55776;SDS011;54079;44.540;18.784;2023-08-06T04:05:07;2.05;;;1.95;;
55776;SDS011;54079;44.540;18.784;2023-08-06T04:07:33;2.67;;;2.42;;
55776;SDS011;54079;44.540;18.784;2023-08-06T04:10:00;2.42;;;1.95;;
55776;SDS011;54079;44.540;18.784;2023-08-06T04:12:27;5.28;;;2.60;;
55776;SDS011;54079;44.540;18.784;2023-08-06T04:14:53;3.72;;;3.42;;
55776;SDS011;54079;44.540;18.784;2023-08-06T04:17:22;2.45;;;2.25;;
55776;SDS011;54079;44.540;18.784;2023-08-06T04:19:52;8.55;;;7.75;;
55776;SDS011;54079;44.540;18.784;2023-08-06T04:22:19;3.67;;;3.38;;
55776;SDS011;54079;44.540;18.784;2023-08-06T04:24:46;2.92;;;2.65;;
55776;SDS011;54079;44.540;18.784;2023-08-06T04:27:13;2.55;;;2.33;;
55776;SDS011;54079;44.540;18.784;2023-08-06T04:29:39;2.53;;;2.33;;
55776;SDS011;54079;44.540;18.784;2023-08-06T04:32:06;3.20;;;2.90;;
55776;SDS011;54079;44.540;18.784;2023-08-06T04:34:34;3.65;;;3.35;;
55776;SDS011;54079;44.540;18.784;2023-08-06T04:37:01;2.83;;;2.63;;
55776;SDS011;54079;44.540;18.784;2023-08-06T04:39:27;2.05;;;1.95;;
55776;SDS011;54079;44.540;18.784;2023-08-06T04:41:54;2.70;;;2.50;;
55776;SDS011;54079;44.540;18.784;2023-08-06T04:44:21;1.85;;;1.75;;
55776;SDS011;54079;44.540;18.784;2023-08-06T04:46:47;2.20;;;2.10;;
55776;SDS011;54079;44.540;18.784;2023-08-06T04:49:13;3.20;;;2.92;;
55776;SDS011;54079;44.540;18.784;2023-08-06T04:51:39;3.85;;;3.55;;
55776;SDS011;54079;44.540;18.784;2023-08-06T04:54:05;2.97;;;2.78;;
55776;SDS011;54079;44.540;18.784;2023-08-06T04:56:31;3.53;;;2.55;;
55776;SDS011;54079;44.540;18.784;2023-08-06T04:58:57;2.08;;;1.98;;
55776;SDS011;54079;44.540;18.784;2023-08-06T05:01:24;2.00;;;1.90;;
55776;SDS011;54079;44.540;18.784;2023-08-06T05:03:50;1.70;;;1.60;;
55776;SDS011;54079;44.540;18.784;2023-08-06T05:06:16;1.40;;;1.30;;
55776;SDS011;54079;44.540;18.784;2023-08-06T05:08:42;2.47;;;1.42;;
55776;SDS011;54079;44.540;18.784;2023-08-06T05:11:09;1.38;;;1.27;;
55776;SDS011;54079;44.540;18.784;2023-08-06T05:13:35;0.80;;;0.80;;
55776;SDS011;54079;44.540;18.784;2023-08-06T05:16:01;0.80;;;0.80;;
55776;SDS011;54079;44.540;18.784;2023-08-06T05:18:27;0.47;;;0.47;;
55776;SDS011;54079;44.540;18.784;2023-08-06T05:20:53;0.90;;;0.73;;
55776;SDS011;54079;44.540;18.784;2023-08-06T05:23:19;1.00;;;0.70;;
55776;SDS011;54079;44.540;18.784;2023-08-06T05:25:45;1.00;;;0.93;;
55776;SDS011;54079;44.540;18.784;2023-08-06T05:28:11;0.80;;;0.45;;
55776;SDS011;54079;44.540;18.784;2023-08-06T05:30:40;0.50;;;0.50;;
55776;SDS011;54079;44.540;18.784;2023-08-06T05:33:06;0.65;;;0.65;;
55776;SDS011;54079;44.540;18.784;2023-08-06T05:35:33;0.75;;;0.75;;
55776;SDS011;54079;44.540;18.784;2023-08-06T05:37:59;0.50;;;0.50;;
55776;SDS011;54079;44.540;18.784;2023-08-06T05:40:24;0.68;;;0.50;;
55776;SDS011;54079;44.540;18.784;2023-08-06T05:42:53;0.40;;;0.38;;
55776;SDS011;54079;44.540;18.784;2023-08-06T05:45:19;0.50;;;0.50;;
55776;SDS011;54079;44.540;18.784;2023-08-06T05:47:45;1.02;;;0.30;;
55776;SDS011;54079;44.540;18.784;2023-08-06T05:50:13;0.55;;;0.50;;
55776;SDS011;54079;44.540;18.784;2023-08-06T05:52:39;1.13;;;0.50;;
55776;SDS011;54079;44.540;18.784;2023-08-06T05:55:05;0.50;;;0.50;;
55776;SDS011;54079;44.540;18.784;2023-08-06T05:57:31;0.40;;;0.40;;
55776;SDS011;54079;44.540;18.784;2023-08-06T05:59:57;0.50;;;0.45;;
55776;SDS011;54079;44.540;18.784;2023-08-06T06:02:23;0.40;;;0.40;;
55776;SDS011;54079;44.540;18.784;2023-08-06T06:04:49;0.95;;;0.28;;
55776;SDS011;54079;44.540;18.784;2023-08-06T06:07:15;0.73;;;0.22;;
55776;SDS011;54079;44.540;18.784;2023-08-06T06:09:41;0.35;;;0.20;;
55776;SDS011;54079;44.540;18.784;2023-08-06T06:12:07;0.40;;;0.20;;
55776;SDS011;54079;44.540;18.784;2023-08-06T06:14:33;0.55;;;0.52;;
55776;SDS011;54079;44.540;18.784;2023-08-06T06:16:59;0.40;;;0.40;;
55776;SDS011;54079;44.540;18.784;2023-08-06T06:19:26;0.80;;;0.50;;
55776;SDS011;54079;44.540;18.784;2023-08-06T06:21:52;0.28;;;0.28;;
55776;SDS011;54079;44.540;18.784;2023-08-06T06:24:18;0.43;;;0.43;;
55776;SDS011;54079;44.540;18.784;2023-08-06T06:26:44;0.30;;;0.30;;
55776;SDS011;54079;44.540;18.784;2023-08-06T06:29:10;0.30;;;0.30;;
55776;SDS011;54079;44.540;18.784;2023-08-06T06:31:36;1.20;;;0.40;;
55776;SDS011;54079;44.540;18.784;2023-08-06T06:34:02;0.43;;;0.43;;
55776;SDS011;54079;44.540;18.784;2023-08-06T06:36:28;0.20;;;0.20;;
55776;SDS011;54079;44.540;18.784;2023-08-06T06:38:54;0.90;;;0.52;;
55776;SDS011;54079;44.540;18.784;2023-08-06T06:41:20;1.13;;;0.57;;
55776;SDS011;54079;44.540;18.784;2023-08-06T06:43:46;0.77;;;0.77;;
55776;SDS011;54079;44.540;18.784;2023-08-06T06:46:11;0.43;;;0.43;;
55776;SDS011;54079;44.540;18.784;2023-08-06T06:48:37;1.13;;;0.50;;
55776;SDS011;54079;44.540;18.784;2023-08-06T06:51:03;0.45;;;0.45;;
55776;SDS011;54079;44.540;18.784;2023-08-06T06:53:29;0.60;;;0.60;;
55776;SDS011;54079;44.540;18.784;2023-08-06T06:56:04;0.47;;;0.45;;
55776;SDS011;54079;44.540;18.784;2023-08-06T06:58:31;0.70;;;0.70;;
55776;SDS011;54079;44.540;18.784;2023-08-06T07:00:57;1.75;;;0.85;;
55776;SDS011;54079;44.540;18.784;2023-08-06T07:03:23;0.68;;;0.65;;
55776;SDS011;54079;44.540;18.784;2023-08-06T07:05:49;1.48;;;0.80;;
55776;SDS011;54079;44.540;18.784;2023-08-06T07:08:16;1.23;;;0.85;;
55776;SDS011;54079;44.540;18.784;2023-08-06T07:10:42;0.88;;;0.88;;
55776;SDS011;54079;44.540;18.784;2023-08-06T07:13:08;0.80;;;0.77;;
55776;SDS011;54079;44.540;18.784;2023-08-06T07:15:35;1.20;;;0.70;;
55776;SDS011;54079;44.540;18.784;2023-08-06T07:18:01;1.95;;;1.45;;
55776;SDS011;54079;44.540;18.784;2023-08-06T07:20:27;1.70;;;1.10;;
55776;SDS011;54079;44.540;18.784;2023-08-06T07:22:56;1.40;;;1.27;;
55776;SDS011;54079;44.540;18.784;2023-08-06T07:25:23;1.10;;;1.10;;
55776;SDS011;54079;44.540;18.784;2023-08-06T07:27:49;5.50;;;0.70;;
55776;SDS011;54079;44.540;18.784;2023-08-06T07:30:15;0.50;;;0.50;;
55776;SDS011;54079;44.540;18.784;2023-08-06T07:32:41;0.88;;;0.88;;
55776;SDS011;54079;44.540;18.784;2023-08-06T07:35:07;0.95;;;0.88;;
55776;SDS011;54079;44.540;18.784;2023-08-06T07:37:38;0.65;;;0.65;;
55776;SDS011;54079;44.540;18.784;2023-08-06T07:40:04;1.00;;;0.75;;
55776;SDS011;54079;44.540;18.784;2023-08-06T07:42:30;0.40;;;0.40;;
55776;SDS011;54079;44.540;18.784;2023-08-06T07:44:58;0.45;;;0.45;;
55776;SDS011;54079;44.540;18.784;2023-08-06T07:47:24;1.17;;;0.70;;
55776;SDS011;54079;44.540;18.784;2023-08-06T07:49:50;0.82;;;0.55;;
55776;SDS011;54079;44.540;18.784;2023-08-06T07:52:16;1.23;;;0.70;;
55776;SDS011;54079;44.540;18.784;2023-08-06T07:54:42;0.32;;;0.32;;
55776;SDS011;54079;44.540;18.784;2023-08-06T07:57:08;0.88;;;0.40;;
55776;SDS011;54079;44.540;18.784;2023-08-06T07:59:34;0.40;;;0.40;;
55776;SDS011;54079;44.540;18.784;2023-08-06T08:02:00;0.50;;;0.50;;
55776;SDS011;54079;44.540;18.784;2023-08-06T08:04:26;0.52;;;0.40;;
55776;SDS011;54079;44.540;18.784;2023-08-06T08:06:52;0.30;;;0.30;;
55776;SDS011;54079;44.540;18.784;2023-08-06T08:09:18;1.15;;;0.88;;
55776;SDS011;54079;44.540;18.784;2023-08-06T08:11:44;1.48;;;0.43;;
55776;SDS011;54079;44.540;18.784;2023-08-06T08:14:10;0.50;;;0.50;;
55776;SDS011;54079;44.540;18.784;2023-08-06T08:16:35;0.40;;;0.40;;
55776;SDS011;54079;44.540;18.784;2023-08-06T08:19:01;0.30;;;0.30;;
55776;SDS011;54079;44.540;18.784;2023-08-06T08:21:29;0.80;;;0.50;;
55776;SDS011;54079;44.540;18.784;2023-08-06T08:23:55;1.02;;;0.73;;
55776;SDS011;54079;44.540;18.784;2023-08-06T08:26:20;0.50;;;0.50;;
55776;SDS011;54079;44.540;18.784;2023-08-06T08:28:46;1.20;;;0.50;;
55776;SDS011;54079;44.540;18.784;2023-08-06T08:31:12;0.43;;;0.30;;
55776;SDS011;54079;44.540;18.784;2023-08-06T08:33:39;0.82;;;0.50;;
55776;SDS011;54079;44.540;18.784;2023-08-06T08:36:05;1.25;;;0.40;;
55776;SDS011;54079;44.540;18.784;2023-08-06T08:38:31;1.23;;;0.70;;
55776;SDS011;54079;44.540;18.784;2023-08-06T08:40:56;0.47;;;0.47;;
55776;SDS011;54079;44.540;18.784;2023-08-06T08:43:23;0.70;;;0.70;;
55776;SDS011;54079;44.540;18.784;2023-08-06T08:45:52;0.30;;;0.30;;
55776;SDS011;54079;44.540;18.784;2023-08-06T08:48:25;0.55;;;0.55;;
55776;SDS011;54079;44.540;18.784;2023-08-06T08:50:52;1.50;;;1.00;;
55776;SDS011;54079;44.540;18.784;2023-08-06T08:53:18;2.05;;;0.90;;
55776;SDS011;54079;44.540;18.784;2023-08-06T08:55:47;0.77;;;0.75;;
55776;SDS011;54079;44.540;18.784;2023-08-06T08:58:14;0.80;;;0.80;;
55776;SDS011;54079;44.540;18.784;2023-08-06T09:00:44;0.93;;;0.93;;
55776;SDS011;54079;44.540;18.784;2023-08-06T09:05:37;0.38;;;0.38;;
55776;SDS011;54079;44.540;18.784;2023-08-06T09:08:11;0.20;;;0.20;;
55776;SDS011;54079;44.540;18.784;2023-08-06T09:10:41;1.55;;;0.40;;
55776;SDS011;54079;44.540;18.784;2023-08-06T09:13:09;0.47;;;0.47;;
55776;SDS011;54079;44.540;18.784;2023-08-06T09:15:37;0.88;;;0.70;;
55776;SDS011;54079;44.540;18.784;2023-08-06T09:18:09;0.80;;;0.70;;
55776;SDS011;54079;44.540;18.784;2023-08-06T09:20:37;0.68;;;0.68;;
55776;SDS011;54079;44.540;18.784;2023-08-06T09:23:09;0.57;;;0.57;;
55776;SDS011;54079;44.540;18.784;2023-08-06T09:25:37;0.73;;;0.73;;
55776;SDS011;54079;44.540;18.784;2023-08-06T09:28:07;0.73;;;0.73;;
55776;SDS011;54079;44.540;18.784;2023-08-06T09:30:34;0.50;;;0.50;;
55776;SDS011;54079;44.540;18.784;2023-08-06T09:33:03;1.13;;;1.02;;
55776;SDS011;54079;44.540;18.784;2023-08-06T09:35:35;0.63;;;0.63;;
55776;SDS011;54079;44.540;18.784;2023-08-06T09:38:07;0.70;;;0.70;;
55776;SDS011;54079;44.540;18.784;2023-08-06T09:40:35;1.52;;;1.42;;
55776;SDS011;54079;44.540;18.784;2023-08-06T09:43:02;1.27;;;0.93;;
55776;SDS011;54079;44.540;18.784;2023-08-06T09:45:30;1.23;;;1.13;;
55776;SDS011;54079;44.540;18.784;2023-08-06T09:48:01;2.08;;;0.82;;
55776;SDS011;54079;44.540;18.784;2023-08-06T09:50:30;0.57;;;0.50;;
55776;SDS011;54079;44.540;18.784;2023-08-06T09:52:57;1.63;;;1.52;;
55776;SDS011;54079;44.540;18.784;2023-08-06T09:55:24;1.00;;;1.00;;
55776;SDS011;54079;44.540;18.784;2023-08-06T09:57:51;0.80;;;0.80;;
55776;SDS011;54079;44.540;18.784;2023-08-06T10:00:18;0.70;;;0.60;;
55776;SDS011;54079;44.540;18.784;2023-08-06T10:02:45;0.90;;;0.43;;
55776;SDS011;54079;44.540;18.784;2023-08-06T10:05:11;0.55;;;0.30;;
55776;SDS011;54079;44.540;18.784;2023-08-06T10:07:38;0.68;;;0.63;;
55776;SDS011;54079;44.540;18.784;2023-08-06T10:10:05;0.40;;;0.40;;
55776;SDS011;54079;44.540;18.784;2023-08-06T10:12:32;0.70;;;0.70;;
55776;SDS011;54079;44.540;18.784;2023-08-06T10:15:30;0.93;;;0.47;;
55776;SDS011;54079;44.540;18.784;2023-08-06T10:17:57;0.50;;;0.50;;
55776;SDS011;54079;44.540;18.784;2023-08-06T10:20:24;0.82;;;0.60;;
55776;SDS011;54079;44.540;18.784;2023-08-06T10:23:06;1.35;;;0.93;;
55776;SDS011;54079;44.540;18.784;2023-08-06T10:25:33;0.82;;;0.82;;
55776;SDS011;54079;44.540;18.784;2023-08-06T10:28:00;0.73;;;0.68;;
55776;SDS011;54079;44.540;18.784;2023-08-06T10:30:45;0.88;;;0.65;;
55776;SDS011;54079;44.540;18.784;2023-08-06T10:33:12;0.50;;;0.43;;
55776;SDS011;54079;44.540;18.784;2023-08-06T10:35:42;0.95;;;0.70;;
55776;SDS011;54079;44.540;18.784;2023-08-06T10:38:19;0.45;;;0.43;;
55776;SDS011;54079;44.540;18.784;2023-08-06T10:45:52;1.70;;;0.50;;
55776;SDS011;54079;44.540;18.784;2023-08-06T10:51:14;1.17;;;0.77;;
55776;SDS011;54079;44.540;18.784;2023-08-06T10:53:47;1.10;;;0.88;;
55776;SDS011;54079;44.540;18.784;2023-08-06T10:56:15;1.00;;;0.90;;
55776;SDS011;54079;44.540;18.784;2023-08-06T10:58:42;0.90;;;0.60;;
55776;SDS011;54079;44.540;18.784;2023-08-06T11:01:08;0.75;;;0.50;;
55776;SDS011;54079;44.540;18.784;2023-08-06T11:03:36;0.60;;;0.60;;
55776;SDS011;54079;44.540;18.784;2023-08-06T11:06:03;0.68;;;0.50;;
55776;SDS011;54079;44.540;18.784;2023-08-06T11:08:34;0.70;;;0.70;;
55776;SDS011;54079;44.540;18.784;2023-08-06T11:11:09;0.98;;;0.50;;
55776;SDS011;54079;44.540;18.784;2023-08-06T11:13:40;0.55;;;0.50;;
55776;SDS011;54079;44.540;18.784;2023-08-06T11:16:07;0.30;;;0.30;;
55776;SDS011;54079;44.540;18.784;2023-08-06T11:18:34;0.43;;;0.40;;
55776;SDS011;54079;44.540;18.784;2023-08-06T11:21:00;1.60;;;1.50;;
55776;SDS011;54079;44.540;18.784;2023-08-06T11:23:30;1.02;;;0.88;;
55776;SDS011;54079;44.540;18.784;2023-08-06T11:25:56;1.00;;;0.90;;
55776;SDS011;54079;44.540;18.784;2023-08-06T11:28:23;0.50;;;0.47;;
55776;SDS011;54079;44.540;18.784;2023-08-06T11:30:49;2.20;;;0.60;;
55776;SDS011;54079;44.540;18.784;2023-08-06T11:35:50;0.50;;;0.50;;
55776;SDS011;54079;44.540;18.784;2023-08-06T11:38:17;1.60;;;0.50;;
55776;SDS011;54079;44.540;18.784;2023-08-06T11:40:49;0.95;;;0.80;;
55776;SDS011;54079;44.540;18.784;2023-08-06T11:43:17;0.80;;;0.55;;
55776;SDS011;54079;44.540;18.784;2023-08-06T11:45:44;0.68;;;0.30;;
55776;SDS011;54079;44.540;18.784;2023-08-06T11:48:10;3.40;;;0.88;;
55776;SDS011;54079;44.540;18.784;2023-08-06T11:50:37;2.40;;;0.80;;
55776;SDS011;54079;44.540;18.784;2023-08-06T11:53:04;0.80;;;0.60;;
55776;SDS011;54079;44.540;18.784;2023-08-06T11:55:30;1.45;;;0.73;;
55776;SDS011;54079;44.540;18.784;2023-08-06T11:57:57;0.88;;;0.63;;
55776;SDS011;54079;44.540;18.784;2023-08-06T12:00:26;1.70;;;0.70;;
55776;SDS011;54079;44.540;18.784;2023-08-06T12:02:53;0.88;;;0.70;;
55776;SDS011;54079;44.540;18.784;2023-08-06T12:05:20;0.40;;;0.40;;
55776;SDS011;54079;44.540;18.784;2023-08-06T12:07:51;2.00;;;0.20;;
55776;SDS011;54079;44.540;18.784;2023-08-06T12:10:18;0.50;;;0.43;;
55776;SDS011;54079;44.540;18.784;2023-08-06T12:12:44;0.52;;;0.30;;
55776;SDS011;54079;44.540;18.784;2023-08-06T12:15:11;0.35;;;0.35;;
55776;SDS011;54079;44.540;18.784;2023-08-06T12:17:37;1.73;;;1.10;;
55776;SDS011;54079;44.540;18.784;2023-08-06T12:20:04;0.60;;;0.45;;
55776;SDS011;54079;44.540;18.784;2023-08-06T12:22:31;0.28;;;0.10;;
55776;SDS011;54079;44.540;18.784;2023-08-06T12:25:00;0.20;;;0.20;;
55776;SDS011;54079;44.540;18.784;2023-08-06T12:27:28;0.40;;;0.40;;
55776;SDS011;54079;44.540;18.784;2023-08-06T12:29:54;0.15;;;0.00;;
55776;SDS011;54079;44.540;18.784;2023-08-06T12:32:20;1.90;;;0.10;;
55776;SDS011;54079;44.540;18.784;2023-08-06T12:34:47;0.10;;;0.00;;
55776;SDS011;54079;44.540;18.784;2023-08-06T12:37:13;0.40;;;0.30;;
55776;SDS011;54079;44.540;18.784;2023-08-06T12:39:39;0.50;;;0.45;;
55776;SDS011;54079;44.540;18.784;2023-08-06T12:42:05;0.25;;;0.10;;
55776;SDS011;54079;44.540;18.784;2023-08-06T12:44:31;0.52;;;0.00;;
55776;SDS011;54079;44.540;18.784;2023-08-06T12:46:58;0.77;;;0.22;;
55776;SDS011;54079;44.540;18.784;2023-08-06T12:49:25;0.40;;;0.10;;
55776;SDS011;54079;44.540;18.784;2023-08-06T12:51:51;0.10;;;0.10;;
55776;SDS011;54079;44.540;18.784;2023-08-06T12:54:18;0.25;;;0.22;;
55776;SDS011;54079;44.540;18.784;2023-08-06T12:56:45;0.77;;;0.60;;
55776;SDS011;54079;44.540;18.784;2023-08-06T12:59:13;0.20;;;0.20;;
55776;SDS011;54079;44.540;18.784;2023-08-06T13:01:40;0.65;;;0.32;;
55776;SDS011;54079;44.540;18.784;2023-08-06T13:04:06;0.13;;;0.10;;
55776;SDS011;54079;44.540;18.784;2023-08-06T13:06:32;1.90;;;0.35;;
55776;SDS011;54079;44.540;18.784;2023-08-06T13:09:11;2.53;;;1.10;;
55776;SDS011;54079;44.540;18.784;2023-08-06T13:11:38;0.98;;;0.80;;
55776;SDS011;54079;44.540;18.784;2023-08-06T13:14:05;1.63;;;0.68;;
55776;SDS011;54079;44.540;18.784;2023-08-06T13:16:33;0.30;;;0.20;;
55776;SDS011;54079;44.540;18.784;2023-08-06T13:19:00;0.70;;;0.50;;
55776;SDS011;54079;44.540;18.784;2023-08-06T13:24:12;0.85;;;0.80;;
55776;SDS011;54079;44.540;18.784;2023-08-06T13:26:38;1.33;;;1.08;;
55776;SDS011;54079;44.540;18.784;2023-08-06T13:29:04;0.63;;;0.63;;
55776;SDS011;54079;44.540;18.784;2023-08-06T13:31:32;1.75;;;1.05;;
55776;SDS011;54079;44.540;18.784;2023-08-06T13:33:59;1.75;;;0.35;;
55776;SDS011;54079;44.540;18.784;2023-08-06T13:36:25;2.95;;;1.40;;
55776;SDS011;54079;44.540;18.784;2023-08-06T13:38:51;2.70;;;1.20;;
55776;SDS011;54079;44.540;18.784;2023-08-06T13:41:17;2.15;;;1.40;;
55776;SDS011;54079;44.540;18.784;2023-08-06T13:43:44;1.55;;;0.95;;
55776;SDS011;54079;44.540;18.784;2023-08-06T13:46:10;1.33;;;0.85;;
55776;SDS011;54079;44.540;18.784;2023-08-06T13:48:44;0.88;;;0.68;;
55776;SDS011;54079;44.540;18.784;2023-08-06T13:51:12;1.17;;;0.70;;
55776;SDS011;54079;44.540;18.784;2023-08-06T13:53:41;0.95;;;0.80;;
55776;SDS011;54079;44.540;18.784;2023-08-06T13:56:08;3.33;;;0.40;;
55776;SDS011;54079;44.540;18.784;2023-08-06T13:58:36;0.65;;;0.43;;
55776;SDS011;54079;44.540;18.784;2023-08-06T14:01:02;0.70;;;0.57;;
55776;SDS011;54079;44.540;18.784;2023-08-06T14:03:28;0.47;;;0.38;;
55776;SDS011;54079;44.540;18.784;2023-08-06T14:05:54;0.30;;;0.30;;
55776;SDS011;54079;44.540;18.784;2023-08-06T14:08:22;0.77;;;0.60;;
55776;SDS011;54079;44.540;18.784;2023-08-06T14:10:49;0.45;;;0.40;;
55776;SDS011;54079;44.540;18.784;2023-08-06T14:13:15;0.85;;;0.60;;
55776;SDS011;54079;44.540;18.784;2023-08-06T14:15:41;0.40;;;0.30;;
55776;SDS011;54079;44.540;18.784;2023-08-06T14:18:12;0.30;;;0.20;;
55776;SDS011;54079;44.540;18.784;2023-08-06T14:20:39;1.02;;;0.50;;
55776;SDS011;54079;44.540;18.784;2023-08-06T14:23:05;0.40;;;0.40;;
55776;SDS011;54079;44.540;18.784;2023-08-06T14:25:38;2.03;;;0.65;;
55776;SDS011;54079;44.540;18.784;2023-08-06T14:28:04;0.43;;;0.30;;
55776;SDS011;54079;44.540;18.784;2023-08-06T14:30:31;0.73;;;0.30;;
55776;SDS011;54079;44.540;18.784;2023-08-06T14:32:58;1.02;;;0.57;;
55776;SDS011;54079;44.540;18.784;2023-08-06T14:35:25;0.70;;;0.60;;
55776;SDS011;54079;44.540;18.784;2023-08-06T14:37:51;1.17;;;0.47;;
55776;SDS011;54079;44.540;18.784;2023-08-06T14:40:17;2.78;;;1.17;;
55776;SDS011;54079;44.540;18.784;2023-08-06T14:42:43;0.40;;;0.10;;
55776;SDS011;54079;44.540;18.784;2023-08-06T14:45:09;0.50;;;0.40;;
55776;SDS011;54079;44.540;18.784;2023-08-06T14:47:35;0.65;;;0.40;;
55776;SDS011;54079;44.540;18.784;2023-08-06T14:50:01;0.63;;;0.20;;
55776;SDS011;54079;44.540;18.784;2023-08-06T14:52:27;0.65;;;0.38;;
55776;SDS011;54079;44.540;18.784;2023-08-06T14:54:54;0.57;;;0.30;;